Flight Track Log - Related Links

Times and Time Zones

All times are in EDT time to prevent confusion due to time zone crossing. See the CNS22 flight status page for this flight to view local times or setup timezone preferences in your user account.

Time Position Orientation Groundspeed Altitude Reporting Facility
EDT Latitude Longitude Course Direction KTS MPH feet Rate Location/Type
Tue 04:56:18 PM 35.8625 -78.8033 259° West 107 123 1,100  Level Washington Center
Tue 04:57:01 PM 35.8575 -78.8339 259° West 130 150 1,700 923 Climbing Washington Center
Tue 04:58:02 PM 35.8667 -78.8856 282° West 177 204 2,700 1,219 Climbing Washington Center
Tue 04:59:09 PM 35.9114 -78.9258 324° Northwest 175 201 4,300 1,140 Climbing Washington Center
Tue 05:00:03 PM 35.9503 -78.9533 330° Northwest 183 211 5,000 895 Climbing Washington Center
Tue 05:01:03 PM 36.0044 -78.9581 356° North 214 246 6,000 1,304 Climbing Washington Center
Tue 05:01:58 PM 36.0408 -78.9236 37° Northeast 199 229 7,500 1,670 Climbing Washington Center
Tue 05:02:58 PM 36.0858 -78.8869 33° Northeast 193 222 9,200 1,587 Climbing Washington Center
Tue 05:03:59 PM 36.1328 -78.8453 36° Northeast 193 222 10,700 885 Climbing Washington Center
Tue 05:05:00 PM 36.1819 -78.8011 36° Northeast 203 234 11,000 504 Climbing Washington Center
Tue 05:05:58 PM 36.2333 -78.7542 North 215 247 11,700 814 Climbing Washington Center
Tue 05:06:58 PM 36.2822 -78.7122 35° Northeast 215 247 12,600 942 Climbing Washington Center
Tue 05:07:59 PM 36.3294 -78.6678 37° Northeast 215 247 13,600 942 Climbing Washington Center
Tue 05:08:59 PM 36.3783 -78.6283 33° Northeast 215 247 14,500 893 Climbing Washington Center
Tue 05:10:00 PM 36.4211 -78.5889 37° Northeast 210 242 15,400 958 Climbing Washington Center
Tue 05:10:58 PM 36.4619 -78.5414 43° Northeast 204 235 16,400 807 Climbing Washington Center
Tue 05:11:59 PM 36.5069 -78.4964 39° Northeast 199 229 17,000 295 Climbing Washington Center
Tue 05:13:00 PM 36.5542 -78.4414 43° Northeast 211 243 17,000  Level Washington Center
Tue 05:14:00 PM 36.6033 -78.3864 42° Northeast 222 255 17,000  Level Washington Center
Tue 05:14:58 PM 36.6569 -78.3286 43° Northeast 233 268 17,000  Level Washington Center
Tue 05:15:00 PM 36.6516 -78.3306 43° Northeast  Level FlightAware Approximate
Tue 05:15:59 PM 36.7061 -78.2681 45° Northeast 233 268 17,000  Level Washington Center
Tue 05:16:59 PM 36.7575 -78.2131 41° Northeast 238 274 17,000  Level Washington Center
Tue 05:17:59 PM 36.8089 -78.1550 42° Northeast 238 274 17,000  Level Washington Center
Tue 05:19:00 PM 36.8581 -78.0944 45° Northeast 238 274 17,000  Level Washington Center
Tue 05:19:58 PM 36.9114 -78.0364 41° Northeast 238 274 17,000  Level Washington Center
Tue 05:20:59 PM 36.9628 -77.9781 42° Northeast 238 274 17,000  Level Washington Center
Tue 05:21:59 PM 37.0139 -77.9225 41° Northeast 238 274 17,000  Level Washington Center
Tue 05:22:59 PM 37.0631 -77.8642 43° Northeast 238 274 17,000  Level Washington Center
Tue 05:24:00 PM 37.1206 -77.8006 41° Northeast 238 274 17,000  Level Washington Center
Tue 05:25:01 PM 37.1694 -77.7422 44° Northeast 238 274 17,000  Level Washington Center
Tue 05:25:59 PM 37.2206 -77.6861 41° Northeast 238 274 17,000  Level Washington Center
Tue 05:27:00 PM 37.2694 -77.6300 42° Northeast 238 274 17,000  Level Washington Center
Tue 05:28:00 PM 37.3183 -77.5714 44° Northeast 238 274 17,000  Level Washington Center
Tue 05:29:01 PM 37.3694 -77.5153 41° Northeast 238 274 17,000  Level Washington Center
Tue 05:29:59 PM 37.4206 -77.4536 44° Northeast 238 274 17,000  Level Washington Center
Tue 05:31:00 PM 37.4714 -77.3972 41° Northeast 238 274 17,000  Level Washington Center
Tue 05:32:00 PM 37.5203 -77.3408 42° Northeast 238 274 17,000  Level Washington Center
Tue 05:33:00 PM 37.5711 -77.2819 43° Northeast 238 274 17,000  Level Washington Center
Tue 05:33:58 PM 37.6219 -77.2228 43° Northeast 238 274 17,000  Level Washington Center
Tue 05:34:59 PM 37.6708 -77.1633 44° Northeast 238 274 17,000  Level Washington Center
Tue 05:36:00 PM 37.7236 -77.1067 40° Northeast 238 274 17,000  Level Washington Center
Tue 05:36:58 PM 37.7744 -77.0550 39° Northeast 238 274 17,000  Level Washington Center
Tue 05:37:58 PM 37.8292 -77.0089 34° Northeast 233 268 17,000  Level Washington Center
Tue 05:38:59 PM 37.8839 -76.9600 35° Northeast 227 261 17,000  Level Washington Center
Tue 05:39:59 PM 37.9367 -76.9108 36° Northeast 227 261 17,000  Level Washington Center
Tue 05:41:00 PM 37.9914 -76.8617 35° Northeast 232 267 17,000  Level Washington Center
Tue 05:42:01 PM 38.0439 -76.8153 35° Northeast 232 267 17,000  Level Washington Center
Tue 05:43:00 PM 38.0967 -76.7658 36° Northeast 232 267 17,000  Level Washington Center
Tue 05:44:00 PM 38.1533 -76.7192 33° Northeast 232 267 17,000  Level Washington Center
Tue 05:45:00 PM 38.2058 -76.6697 36° Northeast 232 267 17,000  Level Washington Center
Tue 05:45:58 PM 38.2583 -76.6203 36° Northeast 232 267 17,000  Level Washington Center
Tue 05:46:58 PM 38.3131 -76.5733 34° Northeast 232 267 17,000 -148 Level Washington Center
Tue 05:48:00 PM 38.3678 -76.5264 34° Northeast 232 267 16,700 -541 Descending Washington Center
Tue 05:49:00 PM 38.4222 -76.4769 35° Northeast 237 273 15,900 -864 Descending Washington Center
Tue 05:49:58 PM 38.4811 -76.4219 36° Northeast 242 278 15,000 -857 Descending Washington Center
Tue 05:50:59 PM 38.5356 -76.3747 34° Northeast 242 278 14,200 -787 Descending Washington Center
Tue 05:52:00 PM 38.5881 -76.3247 37° Northeast 242 278 13,400 -555 Descending Washington Center
Tue 05:52:58 PM 38.6444 -76.2933 23° Northeast 235 270 13,100 -151 Descending Washington Center
Tue 05:53:59 PM 38.7031 -76.2753 14° North 215 247 13,100 -149 Level Washington Center
Tue 05:54:59 PM 38.7636 -76.2572 13° North 210 242 12,800 -397 Descending Washington Center
Tue 05:56:00 PM 38.8261 -76.2392 13° North 215 247 12,300 -347 Descending Washington Center
Tue 05:57:00 PM 38.8931 -76.2158 15° North 229 264 12,100 -100 Descending Washington Center
Tue 05:58:00 PM 38.9514 -76.1975 14° North 229 264 12,100  Level Washington Center
Tue 05:58:58 PM 39.0142 -76.1794 13° North 223 257 12,100 -51 Level Washington Center
Tue 05:59:58 PM 39.0747 -76.1478 22° Northeast 223 257 12,000 -49 Descending Washington Center
Tue 06:01:00 PM 39.1311 -76.1081 29° Northeast 223 257 12,000  Level Washington Center
Tue 06:03:27 PM 39.2667 -76.0167 28° Northeast 234 269 12,000  Level Philadelphia TRACON
Tue 06:04:27 PM 39.3333 -75.9667 30° Northeast 234 269 12,000  Level Philadelphia TRACON
Tue 06:05:33 PM 39.4000 -75.9333 21° North 236 272 12,000  Level Philadelphia TRACON
Tue 06:06:27 PM 39.4500 -75.9000 27° Northeast 236 272 12,000  Level Philadelphia TRACON
Tue 06:07:27 PM 39.5000 -75.8500 38° Northeast 234 269 12,000  Level Philadelphia TRACON
Tue 06:08:27 PM 39.5667 -75.8167 21° North 236 272 12,000  Level Philadelphia TRACON
Tue 06:09:15 PM 39.6000 -75.7667 49° Northeast 243 280 12,000  Level Philadelphia TRACON
Tue 06:10:21 PM 39.6667 -75.7167 30° Northeast 244 281 12,000  Level Philadelphia TRACON
Tue 06:11:28 PM 39.7333 -75.6667 30° Northeast 245 282 12,000  Level Philadelphia TRACON
Tue 06:12:28 PM 39.7833 -75.6167 38° Northeast 242 278 12,000  Level Philadelphia TRACON
Tue 06:13:22 PM 39.8333 -75.5667 38° Northeast 244 281 12,000  Level Philadelphia TRACON
Tue 06:14:22 PM 39.8833 -75.5167 37° Northeast 245 282 12,000  Level Philadelphia TRACON
Tue 06:15:16 PM 39.9333 -75.4667 37° Northeast 247 284 12,000  Level Philadelphia TRACON
Tue 06:16:17 PM 40.0000 -75.4167 30° Northeast 242 278 12,000  Level Philadelphia TRACON
Tue 06:17:17 PM 40.0500 -75.3667 37° Northeast 242 278 12,000  Level Philadelphia TRACON
Tue 06:18:28 PM 40.1167 -75.3000 37° Northeast 243 280 12,000  Level Philadelphia TRACON
Tue 06:19:28 PM 40.1667 -75.2500 37° Northeast 244 281 12,000 -198 Level Philadelphia TRACON
Tue 06:20:29 PM 40.2333 -75.2000 30° Northeast 248 285 11,600 -695 Descending Philadelphia TRACON
Tue 06:22:38 PM 40.3333 -75.0833 42° Northeast 226 260 9,800 -1,168 Descending New York TRACON
Tue 06:23:39 PM 40.3833 -75.0333 37° Northeast 244 281 7,900 -1,650 Descending New York TRACON
Tue 06:24:38 PM 40.4333 -74.9667 45° Northeast 239 275 6,500 -1,210 Descending New York TRACON
Tue 06:25:38 PM 40.4833 -74.9000 45° Northeast 251 289 5,500 -1,000 Descending New York TRACON
Tue 06:26:38 PM 40.5167 -74.8333 57° Northeast 249 287 4,500 -750 Descending New York TRACON
Tue 06:27:38 PM 40.5833 -74.8000 21° North 240 276 4,000 -250 Descending New York TRACON
Tue 06:28:38 PM 40.6333 -74.7500 37° Northeast 232 267 4,000  Level New York TRACON
Tue 06:29:38 PM 40.7000 -74.7167 21° North 227 261 4,000  Level New York TRACON
Tue 06:30:38 PM 40.7500 -74.6667 37° Northeast 227 261 4,000  Level New York TRACON
Tue 06:31:38 PM 40.8000 -74.6333 27° Northeast 229 264 4,000 -300 Level New York TRACON
Tue 06:32:38 PM 40.8500 -74.5833 37° Northeast 238 274 3,400 -500 Descending New York TRACON
Tue 06:33:38 PM 40.9000 -74.5167 45° Northeast 237 273 3,000 -200 Descending New York TRACON
Tue 06:34:38 PM 40.9333 -74.4500 56° Northeast 231 266 3,000  Level New York TRACON
Tue 06:35:38 PM 40.9500 -74.3667 75° East 235 270 3,000  Level New York TRACON
Tue 06:36:38 PM 40.9667 -74.2833 75° East 234 269 3,000 -350 Level New York TRACON
Tue 06:37:38 PM 40.9833 -74.2000 75° East 231 266 2,300 -500 Descending New York TRACON
Tue 06:38:38 PM 40.9833 -74.1167 90° East 202 232 2,000 -149 Descending New York TRACON
Tue 06:39:39 PM 40.9667 -74.0667 114° Southeast 193 222 2,000 -300 Level New York TRACON
Tue 06:40:38 PM 40.9167 -74.0500 166° South 194 223 1,400 -504 Descending New York TRACON
Tue 06:41:38 PM 40.8833 -74.0167 143° Southeast 136 157 1,000 -550 Descending New York TRACON
Tue 06:42:38 PM 40.8667 -74.0500 237° Southwest 110 127 300 -700 Descending New York TRACON

Login

Don't have an account? Register now (free) for customized features, flight alerts, and more!